Time;durP1;ratioP1;P1;durP2;ratioP2;P2;SDS_P1;SDS_P2;PMS_P1;PMS_P2;Temp;Humidity;BMP_temperature;BMP_pressure;BME280_temperature;BME280_humidity;BME280_pressure;Samples;Min_cycle;Max_cycle;Signal;HPM_P1;HPM_P2
2023/10/19 00:00:35;;;;;;;8.48;6.90;;;;;;;;;;5118519;28;20207;-62
2023/10/19 00:03:04;;;;;;;8.00;7.30;;;;;;;;;;5118366;28;20218;-62
2023/10/19 00:05:32;;;;;;;7.90;7.30;;;;;;;;;;5118235;28;20297;-62
2023/10/19 00:07:59;;;;;;;8.35;7.65;;;;;;;;;;5118299;28;20211;-62
2023/10/19 00:10:34;;;;;;;8.38;7.68;;;;;;;;;;5118098;28;20240;-62
2023/10/19 00:13:03;;;;;;;8.07;7.38;;;;;;;;;;5118287;28;20207;-62
2023/10/19 00:15:34;;;;;;;8.40;7.70;;;;;;;;;;5118802;28;20209;-63
2023/10/19 00:18:13;;;;;;;8.27;7.57;;;;;;;;;;5118213;28;20203;-62
2023/10/19 00:20:51;;;;;;;7.32;6.72;;;;;;;;;;5118048;28;20198;-62
2023/10/19 00:23:18;;;;;;;7.85;7.25;;;;;;;;;;5117987;28;20323;-62
2023/10/19 00:25:50;;;;;;;8.48;7.72;;;;;;;;;;5118308;28;20198;-62
2023/10/19 00:28:18;;;;;;;7.93;7.22;;;;;;;;;;5118193;28;20202;-63
2023/10/19 00:30:45;;;;;;;8.23;7.53;;;;;;;;;;5117459;28;20199;-62
2023/10/19 00:33:18;;;;;;;7.90;7.20;;;;;;;;;;5118121;28;20480;-62
2023/10/19 00:36:00;;;;;;;7.75;7.15;;;;;;;;;;5117657;28;20210;-62
2023/10/19 00:41:20;;;;;;;7.68;7.00;;;;;;;;;;5107086;28;20195;-62
2023/10/19 00:43:49;;;;;;;8.57;7.88;;;;;;;;;;5117761;28;20322;-62
2023/10/19 00:46:20;;;;;;;8.02;7.32;;;;;;;;;;5117820;28;20210;-62
2023/10/19 00:48:50;;;;;;;7.80;7.10;;;;;;;;;;5117682;28;20532;-62
2023/10/19 00:51:38;;;;;;;7.82;7.13;;;;;;;;;;5117704;28;20202;-62
2023/10/19 00:54:08;;;;;;;8.00;7.30;;;;;;;;;;5117891;28;20207;-62
2023/10/19 00:56:36;;;;;;;8.23;7.53;;;;;;;;;;5117715;28;20567;-62
2023/10/19 00:59:12;;;;;;;8.13;7.40;;;;;;;;;;5117808;28;20597;-62
2023/10/19 01:01:43;;;;;;;8.35;7.65;;;;;;;;;;5118046;28;20271;-62
2023/10/19 01:04:14;;;;;;;7.55;6.95;;;;;;;;;;5117646;28;20266;-62
2023/10/19 01:06:45;;;;;;;7.25;6.65;;;;;;;;;;5117428;28;20210;-62
2023/10/19 01:09:15;;;;;;;7.40;6.78;;;;;;;;;;5117820;28;20568;-62
2023/10/19 01:11:45;;;;;;;7.10;6.50;;;;;;;;;;5117722;28;20234;-62
2023/10/19 01:14:23;;;;;;;7.38;6.78;;;;;;;;;;5117862;28;20199;-62
2023/10/19 01:16:50;;;;;;;7.53;6.88;;;;;;;;;;5117479;28;20207;-62
2023/10/19 01:19:20;;;;;;;7.68;7.03;;;;;;;;;;5117537;28;20575;-63
2023/10/19 01:21:52;;;;;;;7.80;7.10;;;;;;;;;;5117477;28;20213;-62
2023/10/19 01:24:32;;;;;;;7.13;6.53;;;;;;;;;;5117442;28;20266;-62
2023/10/19 01:27:03;;;;;;;7.57;6.97;;;;;;;;;;5117430;28;20207;-62
2023/10/19 01:29:31;;;;;;;7.10;6.53;;;;;;;;;;5117545;28;20268;-62
2023/10/19 01:32:06;;;;;;;6.50;6.00;;;;;;;;;;5120030;28;20213;-62
2023/10/19 01:34:34;;;;;;;6.78;6.25;;;;;;;;;;5121045;28;20202;-62
2023/10/19 01:37:03;;;;;;;7.82;7.20;;;;;;;;;;5121023;28;20210;-63
2023/10/19 01:39:32;;;;;;;7.43;6.82;;;;;;;;;;5121064;28;20213;-63
2023/10/19 01:41:59;;;;;;;7.70;7.10;;;;;;;;;;5121024;28;20202;-62
2023/10/19 01:44:26;;;;;;;6.65;6.15;;;;;;;;;;5121073;28;20235;-62
2023/10/19 01:46:54;;;;;;;6.80;6.20;;;;;;;;;;5121196;28;20198;-62
2023/10/19 01:49:26;;;;;;;7.72;7.05;;;;;;;;;;5121050;28;20313;-62
2023/10/19 01:51:53;;;;;;;7.68;7.07;;;;;;;;;;5121330;28;20595;-62
2023/10/19 01:54:23;;;;;;;7.00;6.40;;;;;;;;;;5120728;28;20246;-62
2023/10/19 01:56:54;;;;;;;6.90;6.30;;;;;;;;;;5121296;28;20234;-62
2023/10/19 01:59:21;;;;;;;6.95;6.45;;;;;;;;;;5120514;28;20203;-62
2023/10/19 02:01:49;;;;;;;7.60;6.90;;;;;;;;;;5120798;28;20199;-62
2023/10/19 02:04:16;;;;;;;7.43;6.82;;;;;;;;;;5120509;28;20233;-62
2023/10/19 02:06:46;;;;;;;6.93;6.32;;;;;;;;;;5120780;28;20476;-62
2023/10/19 02:09:21;;;;;;;7.25;6.65;;;;;;;;;;5120697;28;20667;-62
2023/10/19 02:11:49;;;;;;;7.75;7.05;;;;;;;;;;5120337;28;20637;-62
2023/10/19 02:14:18;;;;;;;7.22;6.57;;;;;;;;;;5120342;28;20199;-62
2023/10/19 02:16:47;;;;;;;7.72;7.03;;;;;;;;;;5120365;28;20199;-62
2023/10/19 02:19:13;;;;;;;7.03;6.43;;;;;;;;;;5120267;28;20505;-62
2023/10/19 02:21:41;;;;;;;7.30;6.70;;;;;;;;;;5120633;28;20777;-62
2023/10/19 02:24:08;;;;;;;7.38;6.78;;;;;;;;;;5119931;28;20262;-62
2023/10/19 02:26:37;;;;;;;7.13;6.53;;;;;;;;;;5120587;28;20228;-62
2023/10/19 02:29:07;;;;;;;7.65;7.05;;;;;;;;;;5119977;28;20213;-62
2023/10/19 02:31:37;;;;;;;7.38;6.78;;;;;;;;;;5120116;28;20205;-62
2023/10/19 02:34:04;;;;;;;7.10;6.50;;;;;;;;;;5120094;28;20205;-62
2023/10/19 02:36:33;;;;;;;7.85;7.25;;;;;;;;;;5119849;28;20199;-62
2023/10/19 02:39:04;;;;;;;7.90;7.20;;;;;;;;;;5119760;28;20221;-62
2023/10/19 02:41:30;;;;;;;7.78;7.18;;;;;;;;;;5119391;28;20309;-63
2023/10/19 02:44:05;;;;;;;7.65;7.05;;;;;;;;;;5119808;28;20227;-62
2023/10/19 02:46:32;;;;;;;7.53;6.93;;;;;;;;;;5119844;28;20618;-62
2023/10/19 02:49:09;;;;;;;7.10;6.50;;;;;;;;;;5119940;28;20586;-62
2023/10/19 02:51:36;;;;;;;6.97;6.38;;;;;;;;;;5119947;28;20233;-62
2023/10/19 02:54:04;;;;;;;6.72;6.13;;;;;;;;;;5120000;28;20249;-62
2023/10/19 02:56:35;;;;;;;7.00;6.43;;;;;;;;;;5119448;28;20219;-62
2023/10/19 02:59:03;;;;;;;7.90;7.20;;;;;;;;;;5119364;28;20201;-62
2023/10/19 03:01:34;;;;;;;7.88;7.13;;;;;;;;;;5119297;28;20235;-62
2023/10/19 03:04:05;;;;;;;7.25;6.65;;;;;;;;;;5119611;28;20231;-62
2023/10/19 03:06:32;;;;;;;7.43;6.78;;;;;;;;;;5119192;28;20211;-62
2023/10/19 03:09:04;;;;;;;7.90;7.22;;;;;;;;;;5118763;28;20303;-62
2023/10/19 03:11:32;;;;;;;7.05;6.45;;;;;;;;;;5118930;28;20330;-62
2023/10/19 03:14:00;;;;;;;7.82;7.22;;;;;;;;;;5119279;28;20206;-62
2023/10/19 03:16:30;;;;;;;7.45;6.85;;;;;;;;;;5119063;28;20211;-62
2023/10/19 03:18:57;;;;;;;7.28;6.68;;;;;;;;;;5119166;28;20199;-62
2023/10/19 03:21:27;;;;;;;7.30;6.70;;;;;;;;;;5118794;28;20301;-62
2023/10/19 03:23:56;;;;;;;7.22;6.55;;;;;;;;;;5119261;28;20227;-62
2023/10/19 03:26:27;;;;;;;7.90;7.20;;;;;;;;;;5118526;28;20211;-62
2023/10/19 03:28:55;;;;;;;7.10;6.50;;;;;;;;;;5118652;28;20202;-63
2023/10/19 03:31:25;;;;;;;7.55;6.85;;;;;;;;;;5118769;28;20203;-62
2023/10/19 03:33:55;;;;;;;8.40;7.60;;;;;;;;;;5118625;28;20207;-62
2023/10/19 03:36:23;;;;;;;8.48;7.78;;;;;;;;;;5118898;28;20301;-62
2023/10/19 03:38:53;;;;;;;7.85;7.22;;;;;;;;;;5118467;28;20501;-62
2023/10/19 03:41:24;;;;;;;7.63;6.95;;;;;;;;;;5118603;28;20240;-62
2023/10/19 03:43:52;;;;;;;7.40;6.80;;;;;;;;;;5118394;28;20227;-62
2023/10/19 03:46:24;;;;;;;7.40;6.70;;;;;;;;;;5118287;28;20587;-62
2023/10/19 03:48:52;;;;;;;8.00;7.30;;;;;;;;;;5118959;28;20257;-62
2023/10/19 03:51:24;;;;;;;7.32;6.72;;;;;;;;;;5118300;28;20264;-62
2023/10/19 03:53:58;;;;;;;7.18;6.57;;;;;;;;;;5117519;28;20210;-62
2023/10/19 03:56:25;;;;;;;8.10;7.35;;;;;;;;;;5118718;28;20214;-62
2023/10/19 03:58:53;;;;;;;6.95;6.35;;;;;;;;;;5118633;28;20195;-62
2023/10/19 04:01:21;;;;;;;7.40;6.80;;;;;;;;;;5118867;28;20264;-62
2023/10/19 04:03:51;;;;;;;7.40;6.80;;;;;;;;;;5117736;28;20282;-62
2023/10/19 04:06:20;;;;;;;8.02;7.25;;;;;;;;;;5117605;28;20203;-62
2023/10/19 04:08:50;;;;;;;7.18;6.57;;;;;;;;;;5117794;28;20242;-62
2023/10/19 04:11:22;;;;;;;7.47;6.80;;;;;;;;;;5116202;28;20235;-62
2023/10/19 04:13:54;;;;;;;6.80;6.30;;;;;;;;;;5116805;28;20230;-62
2023/10/19 04:16:23;;;;;;;7.18;6.47;;;;;;;;;;5117220;28;20206;-63
2023/10/19 04:18:50;;;;;;;6.78;6.18;;;;;;;;;;5117012;28;20203;-62
2023/10/19 04:21:17;;;;;;;6.63;6.13;;;;;;;;;;5116766;28;20210;-62
2023/10/19 04:23:46;;;;;;;6.38;5.85;;;;;;;;;;5117370;28;20203;-62
2023/10/19 04:26:14;;;;;;;6.57;5.97;;;;;;;;;;5116992;28;20204;-62
2023/10/19 04:28:49;;;;;;;7.22;6.63;;;;;;;;;;5116609;28;20203;-63
2023/10/19 04:31:17;;;;;;;6.65;6.10;;;;;;;;;;5116698;28;20203;-62
2023/10/19 04:33:47;;;;;;;6.45;5.95;;;;;;;;;;5116037;28;20203;-62
2023/10/19 04:36:21;;;;;;;7.07;6.47;;;;;;;;;;5115520;28;20576;-62
2023/10/19 04:38:48;;;;;;;6.20;5.70;;;;;;;;;;5130104;28;20534;-62
2023/10/19 04:41:15;;;;;;;6.65;6.15;;;;;;;;;;5134055;28;20202;-62
2023/10/19 04:43:49;;;;;;;6.32;5.80;;;;;;;;;;5128346;28;20221;-62
2023/10/19 04:46:18;;;;;;;6.35;5.85;;;;;;;;;;5131899;28;20472;-62
2023/10/19 04:48:46;;;;;;;6.72;6.22;;;;;;;;;;5129291;28;20255;-62
2023/10/19 04:51:13;;;;;;;7.03;6.43;;;;;;;;;;5118847;28;20203;-62
2023/10/19 04:53:42;;;;;;;6.93;6.32;;;;;;;;;;5127770;28;20206;-62
2023/10/19 04:56:12;;;;;;;6.30;5.80;;;;;;;;;;5130281;28;20490;-62
2023/10/19 04:58:40;;;;;;;6.30;5.78;;;;;;;;;;5133146;28;20202;-62
2023/10/19 05:01:11;;;;;;;7.28;6.68;;;;;;;;;;5127240;28;20229;-62
2023/10/19 05:03:38;;;;;;;6.93;6.32;;;;;;;;;;5130349;28;20198;-63
2023/10/19 05:06:06;;;;;;;6.93;6.32;;;;;;;;;;5116702;28;20223;-62
2023/10/19 05:08:33;;;;;;;7.25;6.65;;;;;;;;;;5117135;27;20234;-62
2023/10/19 05:11:01;;;;;;;6.78;6.20;;;;;;;;;;5122236;27;20673;-62
2023/10/19 05:13:30;;;;;;;6.53;6.03;;;;;;;;;;5138217;27;20230;-62
2023/10/19 05:15:58;;;;;;;6.05;5.55;;;;;;;;;;5138995;27;20194;-62
2023/10/19 05:18:27;;;;;;;6.00;5.50;;;;;;;;;;5138546;27;20293;-63
2023/10/19 05:20:56;;;;;;;6.43;5.93;;;;;;;;;;5139080;27;20202;-62
2023/10/19 05:23:24;;;;;;;6.82;6.22;;;;;;;;;;5139039;27;20266;-62
2023/10/19 05:25:53;;;;;;;6.35;5.85;;;;;;;;;;5139122;27;20322;-62
2023/10/19 05:28:21;;;;;;;6.13;5.63;;;;;;;;;;5139539;27;20202;-62
2023/10/19 05:30:49;;;;;;;5.90;5.40;;;;;;;;;;5139181;27;20210;-62
2023/10/19 05:33:20;;;;;;;6.30;5.80;;;;;;;;;;5139370;27;20217;-62
2023/10/19 05:35:49;;;;;;;6.65;6.05;;;;;;;;;;5138710;27;20237;-62
2023/10/19 05:38:17;;;;;;;6.38;5.85;;;;;;;;;;5138791;27;20202;-62
2023/10/19 05:40:45;;;;;;;6.30;5.80;;;;;;;;;;5138713;27;20574;-62
2023/10/19 05:43:12;;;;;;;5.95;5.45;;;;;;;;;;5139625;27;20203;-62
2023/10/19 05:45:39;;;;;;;6.60;6.00;;;;;;;;;;5138680;27;20229;-62
2023/10/19 05:48:07;;;;;;;6.43;5.90;;;;;;;;;;5138009;27;20202;-62
2023/10/19 05:50:34;;;;;;;6.32;5.72;;;;;;;;;;5138240;27;20464;-62
2023/10/19 05:53:05;;;;;;;6.00;5.50;;;;;;;;;;5139319;27;20210;-62
2023/10/19 05:55:34;;;;;;;6.20;5.70;;;;;;;;;;5137881;27;20553;-62
2023/10/19 05:58:04;;;;;;;6.30;5.80;;;;;;;;;;5118102;28;20249;-62
2023/10/19 06:00:31;;;;;;;6.95;6.25;;;;;;;;;;5119192;28;20210;-62
2023/10/19 06:02:59;;;;;;;5.90;5.38;;;;;;;;;;5117887;28;20203;-62
2023/10/19 06:05:27;;;;;;;6.30;5.80;;;;;;;;;;5118174;28;20597;-62
2023/10/19 06:07:54;;;;;;;6.25;5.75;;;;;;;;;;5118582;28;20238;-62
2023/10/19 06:10:23;;;;;;;6.40;5.90;;;;;;;;;;5117605;28;20238;-62
2023/10/19 06:12:51;;;;;;;6.03;5.53;;;;;;;;;;5118272;28;20212;-62
2023/10/19 06:15:20;;;;;;;6.25;5.65;;;;;;;;;;5117977;28;20222;-62
2023/10/19 06:17:49;;;;;;;6.20;5.70;;;;;;;;;;5118283;28;20594;-62
2023/10/19 06:20:27;;;;;;;5.82;5.32;;;;;;;;;;5118207;28;20215;-62
2023/10/19 06:22:55;;;;;;;6.38;5.82;;;;;;;;;;5118761;28;20609;-62
2023/10/19 06:25:24;;;;;;;6.20;5.63;;;;;;;;;;5117768;28;20504;-62
2023/10/19 06:27:53;;;;;;;6.82;6.22;;;;;;;;;;5118331;28;20213;-62
2023/10/19 06:30:22;;;;;;;6.25;5.65;;;;;;;;;;5118475;28;20210;-62
2023/10/19 06:32:51;;;;;;;6.78;6.18;;;;;;;;;;5118125;28;20569;-62
2023/10/19 06:35:19;;;;;;;7.03;6.43;;;;;;;;;;5117626;28;20191;-62
2023/10/19 06:37:46;;;;;;;6.20;5.70;;;;;;;;;;5118597;28;20195;-62
2023/10/19 06:40:14;;;;;;;6.20;5.70;;;;;;;;;;5118277;28;20211;-62
2023/10/19 06:42:45;;;;;;;6.45;5.95;;;;;;;;;;5118131;28;20214;-62
2023/10/19 06:45:13;;;;;;;6.07;5.57;;;;;;;;;;5117660;28;20318;-62
2023/10/19 06:47:42;;;;;;;6.40;5.90;;;;;;;;;;5117616;28;20590;-62
2023/10/19 06:50:11;;;;;;;6.60;6.00;;;;;;;;;;5117364;28;20310;-62
2023/10/19 06:52:38;;;;;;;6.35;5.85;;;;;;;;;;5117449;28;20219;-62
2023/10/19 06:55:07;;;;;;;6.88;6.28;;;;;;;;;;5132001;27;20479;-62
2023/10/19 06:57:34;;;;;;;6.50;6.00;;;;;;;;;;5137580;27;20198;-62
2023/10/19 07:00:14;;;;;;;7.05;6.47;;;;;;;;;;5137093;27;20647;-62
2023/10/19 07:02:41;;;;;;;7.20;6.60;;;;;;;;;;5137605;27;20293;-62
2023/10/19 07:05:10;;;;;;;6.90;6.28;;;;;;;;;;5137758;27;20643;-62
2023/10/19 07:07:39;;;;;;;6.65;6.10;;;;;;;;;;5137165;27;20204;-62
2023/10/19 07:10:08;;;;;;;6.32;5.82;;;;;;;;;;5137244;27;20281;-62
2023/10/19 07:12:36;;;;;;;6.55;6.05;;;;;;;;;;5137628;27;20293;-62
2023/10/19 07:15:07;;;;;;;6.95;6.35;;;;;;;;;;5137452;27;20594;-62
2023/10/19 07:17:34;;;;;;;7.15;6.55;;;;;;;;;;5138568;27;20511;-62
2023/10/19 07:20:04;;;;;;;6.53;5.90;;;;;;;;;;5136578;27;20765;-62
2023/10/19 07:22:31;;;;;;;7.13;6.43;;;;;;;;;;5136673;27;20296;-62
2023/10/19 07:24:59;;;;;;;6.30;5.80;;;;;;;;;;5137858;27;20202;-62
2023/10/19 07:27:28;;;;;;;6.60;6.00;;;;;;;;;;5137143;27;20223;-62
2023/10/19 07:29:56;;;;;;;6.60;6.03;;;;;;;;;;5136054;27;20698;-62
2023/10/19 07:32:25;;;;;;;7.10;6.53;;;;;;;;;;5137672;27;20203;-62
2023/10/19 07:34:52;;;;;;;6.90;6.18;;;;;;;;;;5137798;27;20202;-62
2023/10/19 07:37:21;;;;;;;7.30;6.60;;;;;;;;;;5137721;27;20217;-62
2023/10/19 07:39:48;;;;;;;7.30;6.60;;;;;;;;;;5137160;27;20221;-62
2023/10/19 07:42:17;;;;;;;6.63;6.10;;;;;;;;;;5137170;27;20209;-62
2023/10/19 07:44:44;;;;;;;6.82;6.03;;;;;;;;;;5137080;27;20233;-62
2023/10/19 07:47:12;;;;;;;6.13;5.60;;;;;;;;;;5136658;27;20233;-62
2023/10/19 07:49:41;;;;;;;6.35;5.85;;;;;;;;;;5136902;27;20233;-62
2023/10/19 07:52:10;;;;;;;6.57;5.97;;;;;;;;;;5136809;27;20194;-62
2023/10/19 07:54:38;;;;;;;6.30;5.70;;;;;;;;;;5136348;27;20458;-62
2023/10/19 07:57:06;;;;;;;6.57;6.07;;;;;;;;;;5136220;27;20199;-62
2023/10/19 07:59:33;;;;;;;5.97;5.47;;;;;;;;;;5136895;27;20601;-62
2023/10/19 08:02:03;;;;;;;6.85;6.15;;;;;;;;;;5137412;27;20201;-62
2023/10/19 08:04:30;;;;;;;6.20;5.70;;;;;;;;;;5136096;27;20210;-62
2023/10/19 08:07:00;;;;;;;5.95;5.32;;;;;;;;;;5136027;27;20317;-62
2023/10/19 08:09:31;;;;;;;5.80;5.30;;;;;;;;;;5137107;27;20202;-62
2023/10/19 08:11:59;;;;;;;6.45;5.80;;;;;;;;;;5136279;27;20626;-62
2023/10/19 08:14:26;;;;;;;6.22;5.63;;;;;;;;;;5136668;27;20220;-62
2023/10/19 08:16:54;;;;;;;6.47;5.88;;;;;;;;;;5136266;27;20209;-62
2023/10/19 08:19:21;;;;;;;6.50;5.90;;;;;;;;;;5136215;27;20201;-63
2023/10/19 08:21:49;;;;;;;6.25;5.75;;;;;;;;;;5136563;27;20290;-62
2023/10/19 08:24:20;;;;;;;6.05;5.53;;;;;;;;;;5136872;27;20249;-62
2023/10/19 08:26:47;;;;;;;6.65;6.05;;;;;;;;;;5136104;27;20233;-62
2023/10/19 08:29:15;;;;;;;6.07;5.47;;;;;;;;;;5135194;27;20210;-63
2023/10/19 08:31:42;;;;;;;6.55;6.00;;;;;;;;;;5135649;28;20285;-62
2023/10/19 08:34:11;;;;;;;6.90;5.38;;;;;;;;;;5136577;28;20209;-62
2023/10/19 08:36:38;;;;;;;6.32;5.72;;;;;;;;;;5136624;28;20206;-62
2023/10/19 08:39:07;;;;;;;5.50;5.05;;;;;;;;;;5135755;27;20214;-62
2023/10/19 08:41:37;;;;;;;6.13;5.53;;;;;;;;;;5139664;27;20222;-62
2023/10/19 08:44:10;;;;;;;6.03;5.53;;;;;;;;;;5140323;27;20202;-62
2023/10/19 08:46:38;;;;;;;6.20;5.70;;;;;;;;;;5140544;27;20710;-62
2023/10/19 08:49:09;;;;;;;6.15;5.65;;;;;;;;;;5139612;27;20522;-62
2023/10/19 08:51:36;;;;;;;6.07;5.57;;;;;;;;;;5140121;27;20304;-62
2023/10/19 08:54:05;;;;;;;5.80;5.30;;;;;;;;;;5139901;27;20205;-62
2023/10/19 08:56:33;;;;;;;5.97;5.47;;;;;;;;;;5139114;27;20244;-62
2023/10/19 08:59:02;;;;;;;6.10;5.50;;;;;;;;;;5139460;27;20198;-62
2023/10/19 09:01:30;;;;;;;5.72;5.22;;;;;;;;;;5139944;27;20201;-62
2023/10/19 09:03:58;;;;;;;5.47;4.97;;;;;;;;;;5139960;27;20628;-62
2023/10/19 09:06:28;;;;;;;5.80;5.30;;;;;;;;;;5139326;27;20274;-62
2023/10/19 09:08:57;;;;;;;6.60;6.00;;;;;;;;;;5139682;27;20228;-62
2023/10/19 09:11:25;;;;;;;5.63;5.22;;;;;;;;;;5139269;27;20540;-62
2023/10/19 09:13:53;;;;;;;6.35;5.85;;;;;;;;;;5139425;27;20206;-62
2023/10/19 09:16:23;;;;;;;6.18;5.68;;;;;;;;;;5139013;27;20230;-63
2023/10/19 09:18:51;;;;;;;6.03;5.50;;;;;;;;;;5139885;27;20600;-62
2023/10/19 09:21:28;;;;;;;6.32;5.82;;;;;;;;;;5139221;27;20217;-62
2023/10/19 09:23:56;;;;;;;5.80;5.30;;;;;;;;;;5139627;27;20194;-62
2023/10/19 09:26:24;;;;;;;5.80;5.40;;;;;;;;;;5139379;27;20680;-62
2023/10/19 09:28:52;;;;;;;5.72;5.22;;;;;;;;;;5139431;27;20204;-62
2023/10/19 09:31:21;;;;;;;5.13;4.72;;;;;;;;;;5139269;27;20849;-62
2023/10/19 09:33:50;;;;;;;5.32;4.93;;;;;;;;;;5138555;27;20285;-62
2023/10/19 09:36:18;;;;;;;6.05;5.55;;;;;;;;;;5138562;27;20360;-62
2023/10/19 09:38:48;;;;;;;5.72;5.22;;;;;;;;;;5138799;27;20202;-62
2023/10/19 09:41:17;;;;;;;5.60;5.10;;;;;;;;;;5138881;27;20198;-62
2023/10/19 09:43:45;;;;;;;6.00;5.40;;;;;;;;;;5138889;27;20241;-62
2023/10/19 09:46:14;;;;;;;5.22;4.82;;;;;;;;;;5139127;27;20222;-63
2023/10/19 09:48:44;;;;;;;5.82;5.30;;;;;;;;;;5138192;27;20206;-62
2023/10/19 09:51:12;;;;;;;5.68;5.18;;;;;;;;;;5137327;27;20225;-62
2023/10/19 09:53:40;;;;;;;5.60;5.20;;;;;;;;;;5138245;27;20202;-62
2023/10/19 09:56:10;;;;;;;5.90;5.40;;;;;;;;;;5138942;27;20194;-62
2023/10/19 09:58:43;;;;;;;5.80;5.30;;;;;;;;;;5138584;27;20214;-62
2023/10/19 10:01:13;;;;;;;5.38;4.95;;;;;;;;;;5139306;27;20493;-62
2023/10/19 10:03:51;;;;;;;5.47;4.97;;;;;;;;;;5138135;27;20202;-63
2023/10/19 10:06:28;;;;;;;5.55;5.05;;;;;;;;;;5138271;27;20229;-62
2023/10/19 10:08:56;;;;;;;5.75;5.25;;;;;;;;;;5138575;27;20210;-62
2023/10/19 10:11:26;;;;;;;5.32;4.93;;;;;;;;;;5137414;27;20233;-62
2023/10/19 10:13:54;;;;;;;5.80;5.30;;;;;;;;;;5136943;27;20267;-62
2023/10/19 10:16:22;;;;;;;5.50;5.00;;;;;;;;;;5137906;27;20198;-62
2023/10/19 10:18:51;;;;;;;5.97;5.47;;;;;;;;;;5137520;27;20198;-62
2023/10/19 10:21:21;;;;;;;5.68;5.22;;;;;;;;;;5137414;27;20229;-62
2023/10/19 10:23:50;;;;;;;5.65;5.15;;;;;;;;;;5137045;27;20301;-62
2023/10/19 10:26:19;;;;;;;5.40;5.00;;;;;;;;;;5137314;27;20230;-62
2023/10/19 10:28:49;;;;;;;5.43;4.93;;;;;;;;;;5136241;27;20194;-62
2023/10/19 10:31:20;;;;;;;5.72;5.22;;;;;;;;;;5136496;27;20213;-62
2023/10/19 10:33:49;;;;;;;5.57;5.13;;;;;;;;;;5137005;27;20255;-62
2023/10/19 10:36:17;;;;;;;5.80;5.30;;;;;;;;;;5136754;27;20236;-62
2023/10/19 10:38:47;;;;;;;5.93;5.43;;;;;;;;;;5136717;27;20302;-62
2023/10/19 10:41:21;;;;;;;6.03;5.43;;;;;;;;;;5135751;27;20205;-62
2023/10/19 10:43:55;;;;;;;5.65;5.25;;;;;;;;;;5136551;27;20194;-62
2023/10/19 10:46:22;;;;;;;5.55;5.10;;;;;;;;;;5136423;27;20218;-62
2023/10/19 10:48:51;;;;;;;5.40;5.00;;;;;;;;;;5137050;27;20221;-63
2023/10/19 10:51:22;;;;;;;5.47;5.07;;;;;;;;;;5136377;27;20492;-62
2023/10/19 10:53:52;;;;;;;6.20;5.70;;;;;;;;;;5135948;27;20625;-62
2023/10/19 10:56:21;;;;;;;5.88;5.47;;;;;;;;;;5136453;27;20209;-62
2023/10/19 10:58:48;;;;;;;5.63;5.20;;;;;;;;;;5137015;27;20202;-62
2023/10/19 11:01:15;;;;;;;6.10;5.60;;;;;;;;;;5135775;27;20209;-62
2023/10/19 11:03:43;;;;;;;6.78;6.18;;;;;;;;;;5135657;27;20202;-62
2023/10/19 11:06:11;;;;;;;5.88;5.38;;;;;;;;;;5135889;27;20206;-62
2023/10/19 11:08:39;;;;;;;6.32;5.75;;;;;;;;;;5135793;27;20202;-62
2023/10/19 11:11:11;;;;;;;6.05;5.55;;;;;;;;;;5135690;27;20322;-62
2023/10/19 11:13:38;;;;;;;5.47;5.00;;;;;;;;;;5136348;27;20239;-62
2023/10/19 11:16:07;;;;;;;5.85;5.28;;;;;;;;;;5135540;27;20206;-62
2023/10/19 11:18:37;;;;;;;6.05;5.55;;;;;;;;;;5135934;27;20245;-62
2023/10/19 11:21:09;;;;;;;6.03;5.53;;;;;;;;;;5136368;27;20201;-62
2023/10/19 11:23:36;;;;;;;5.80;5.30;;;;;;;;;;5136733;27;20202;-62
2023/10/19 11:26:05;;;;;;;6.20;5.70;;;;;;;;;;5136400;27;20206;-62
2023/10/19 11:28:33;;;;;;;5.85;5.35;;;;;;;;;;5136686;27;20304;-62
2023/10/19 11:31:17;;;;;;;6.20;5.60;;;;;;;;;;5135940;27;20203;-62
2023/10/19 11:33:46;;;;;;;5.85;5.38;;;;;;;;;;5136258;27;20212;-62
2023/10/19 11:36:13;;;;;;;5.90;5.40;;;;;;;;;;5135652;27;20220;-62
2023/10/19 11:38:43;;;;;;;5.80;5.20;;;;;;;;;;5135651;27;20202;-62
2023/10/19 11:41:12;;;;;;;6.20;5.60;;;;;;;;;;5135821;27;20202;-62
2023/10/19 11:43:41;;;;;;;6.38;5.88;;;;;;;;;;5134429;27;20645;-62
2023/10/19 11:46:08;;;;;;;6.05;5.55;;;;;;;;;;5134443;27;20228;-62
2023/10/19 11:48:37;;;;;;;6.32;5.72;;;;;;;;;;5134631;27;20206;-62
2023/10/19 11:51:04;;;;;;;7.00;6.32;;;;;;;;;;5134825;27;20202;-62
2023/10/19 11:53:36;;;;;;;6.47;5.88;;;;;;;;;;5134820;27;20198;-62
2023/10/19 11:56:05;;;;;;;6.90;5.88;;;;;;;;;;5135151;27;20206;-63
2023/10/19 11:58:34;;;;;;;6.10;5.53;;;;;;;;;;5134948;27;20477;-62
2023/10/19 12:01:05;;;;;;;6.38;5.78;;;;;;;;;;5134990;27;20263;-62
2023/10/19 12:03:35;;;;;;;6.45;5.95;;;;;;;;;;5135213;27;20202;-62
2023/10/19 12:06:04;;;;;;;6.15;5.55;;;;;;;;;;5135504;27;20198;-62
2023/10/19 12:08:31;;;;;;;6.18;5.60;;;;;;;;;;5135355;27;20567;-62
2023/10/19 12:10:58;;;;;;;6.53;5.95;;;;;;;;;;5135128;27;20242;-62
2023/10/19 12:13:26;;;;;;;6.03;5.53;;;;;;;;;;5135294;27;20202;-62
2023/10/19 12:15:54;;;;;;;6.47;5.88;;;;;;;;;;5134537;27;20202;-62
2023/10/19 12:18:23;;;;;;;6.95;6.35;;;;;;;;;;5135421;27;20217;-62
2023/10/19 12:20:50;;;;;;;7.13;6.43;;;;;;;;;;5134844;27;20202;-62
2023/10/19 12:23:23;;;;;;;6.55;5.95;;;;;;;;;;5134902;28;20228;-62
2023/10/19 12:25:50;;;;;;;7.25;6.65;;;;;;;;;;5134071;27;20198;-62
2023/10/19 12:28:18;;;;;;;6.68;6.07;;;;;;;;;;5135174;27;20226;-62
2023/10/19 12:30:45;;;;;;;6.65;6.05;;;;;;;;;;5133986;27;20202;-62
2023/10/19 12:33:12;;;;;;;6.78;6.07;;;;;;;;;;5134336;28;20206;-62
2023/10/19 12:35:51;;;;;;;6.95;6.35;;;;;;;;;;5134259;28;20210;-62
2023/10/19 12:38:19;;;;;;;6.15;5.65;;;;;;;;;;5134620;28;20190;-62
2023/10/19 12:40:48;;;;;;;6.32;5.72;;;;;;;;;;5134742;28;20241;-62
2023/10/19 12:43:18;;;;;;;6.50;5.90;;;;;;;;;;5135445;28;20213;-62
2023/10/19 12:45:50;;;;;;;6.30;5.80;;;;;;;;;;5135448;28;20210;-62
2023/10/19 12:48:17;;;;;;;7.18;6.47;;;;;;;;;;5135276;28;20226;-62
2023/10/19 12:50:46;;;;;;;6.40;5.80;;;;;;;;;;5136190;28;20202;-62
2023/10/19 12:53:14;;;;;;;7.03;6.43;;;;;;;;;;5135013;28;20210;-63
2023/10/19 12:55:44;;;;;;;6.95;6.35;;;;;;;;;;5134706;28;20609;-62
2023/10/19 12:58:14;;;;;;;7.25;6.60;;;;;;;;;;5134573;28;20190;-62
2023/10/19 13:00:43;;;;;;;6.90;6.30;;;;;;;;;;5134622;28;20202;-63
2023/10/19 13:03:13;;;;;;;7.03;6.43;;;;;;;;;;5134524;28;20202;-62
2023/10/19 13:05:41;;;;;;;6.68;6.07;;;;;;;;;;5135336;28;20217;-62
2023/10/19 13:08:13;;;;;;;6.18;5.68;;;;;;;;;;5133870;28;20218;-62
2023/10/19 13:10:42;;;;;;;6.53;5.93;;;;;;;;;;5134708;28;20341;-62
2023/10/19 13:13:11;;;;;;;6.80;6.20;;;;;;;;;;5133542;28;20198;-63
2023/10/19 13:15:39;;;;;;;7.00;6.30;;;;;;;;;;5133668;28;20214;-62
2023/10/19 13:18:07;;;;;;;6.95;6.35;;;;;;;;;;5134364;28;20202;-62
2023/10/19 13:20:34;;;;;;;6.55;5.97;;;;;;;;;;5134528;28;20203;-62
2023/10/19 13:23:03;;;;;;;6.55;5.95;;;;;;;;;;5133762;28;20634;-62
2023/10/19 13:25:50;;;;;;;6.80;6.20;;;;;;;;;;5133804;27;20203;-63
2023/10/19 13:28:17;;;;;;;6.78;6.18;;;;;;;;;;5137253;27;20777;-62
2023/10/19 13:30:48;;;;;;;6.85;6.25;;;;;;;;;;5138252;27;20213;-62
2023/10/19 13:33:15;;;;;;;6.43;5.82;;;;;;;;;;5138348;27;20205;-63
2023/10/19 13:35:43;;;;;;;6.35;5.85;;;;;;;;;;5138477;27;20205;-63
2023/10/19 13:38:11;;;;;;;6.95;6.35;;;;;;;;;;5137921;27;20191;-62
2023/10/19 13:40:40;;;;;;;6.90;6.30;;;;;;;;;;5138230;27;20198;-62
2023/10/19 13:43:08;;;;;;;7.05;6.35;;;;;;;;;;5138497;27;20202;-62
2023/10/19 13:45:35;;;;;;;7.20;6.53;;;;;;;;;;5138256;27;20209;-62
2023/10/19 13:48:04;;;;;;;6.55;5.95;;;;;;;;;;5137685;27;20233;-62
2023/10/19 13:50:31;;;;;;;6.75;6.15;;;;;;;;;;5136777;27;20202;-62
2023/10/19 13:53:00;;;;;;;7.10;6.50;;;;;;;;;;5137579;27;20198;-62
2023/10/19 13:55:28;;;;;;;6.63;6.03;;;;;;;;;;5137045;27;20217;-62
2023/10/19 13:57:57;;;;;;;7.22;6.63;;;;;;;;;;5137241;27;20225;-62
2023/10/19 14:00:30;;;;;;;7.65;6.95;;;;;;;;;;5137444;27;20604;-62
2023/10/19 14:02:58;;;;;;;7.45;6.68;;;;;;;;;;5137021;27;20202;-62
2023/10/19 14:05:26;;;;;;;7.18;6.57;;;;;;;;;;5136872;27;20213;-62
2023/10/19 14:07:53;;;;;;;7.25;6.65;;;;;;;;;;5136742;27;20222;-62
2023/10/19 14:10:21;;;;;;;7.60;7.00;;;;;;;;;;5137458;27;20495;-62
2023/10/19 14:12:49;;;;;;;7.10;6.40;;;;;;;;;;5136820;27;20211;-62
2023/10/19 14:15:18;;;;;;;7.78;7.07;;;;;;;;;;5136778;27;20293;-62
2023/10/19 14:17:46;;;;;;;7.55;6.85;;;;;;;;;;5138060;27;20198;-63
2023/10/19 14:20:15;;;;;;;6.50;5.93;;;;;;;;;;5136447;27;20267;-62
2023/10/19 14:22:42;;;;;;;7.25;6.65;;;;;;;;;;5137134;27;20202;-62
2023/10/19 14:25:12;;;;;;;7.18;6.57;;;;;;;;;;5136982;27;20228;-62
2023/10/19 14:27:41;;;;;;;6.55;5.95;;;;;;;;;;5137056;27;20226;-62
2023/10/19 14:30:11;;;;;;;7.45;6.85;;;;;;;;;;5137331;27;20194;-62
2023/10/19 14:32:41;;;;;;;7.03;6.43;;;;;;;;;;5137374;27;20202;-62
2023/10/19 14:35:10;;;;;;;6.93;6.32;;;;;;;;;;5136137;27;20202;-62
2023/10/19 14:37:39;;;;;;;7.40;6.80;;;;;;;;;;5135682;27;20191;-62
2023/10/19 14:40:09;;;;;;;6.88;6.28;;;;;;;;;;5136071;27;20198;-62
2023/10/19 14:42:37;;;;;;;6.30;5.80;;;;;;;;;;5136431;27;20267;-62
2023/10/19 14:45:09;;;;;;;6.65;6.05;;;;;;;;;;5136576;27;20202;-62
2023/10/19 14:47:36;;;;;;;7.00;6.32;;;;;;;;;;5136769;27;20229;-62
2023/10/19 14:50:05;;;;;;;7.20;6.50;;;;;;;;;;5136551;27;20259;-62
2023/10/19 14:52:33;;;;;;;6.85;6.25;;;;;;;;;;5136552;27;20232;-62
2023/10/19 14:55:00;;;;;;;6.65;6.03;;;;;;;;;;5136310;27;20701;-63
2023/10/19 14:57:28;;;;;;;6.82;6.28;;;;;;;;;;5136616;27;20528;-63